Time;durP1;ratioP1;P1;durP2;ratioP2;P2;SDS_P1;SDS_P2;PMS_P1;PMS_P2;Temp;Humidity;BMP_temperature;BMP_pressure;BME280_temperature;BME280_humidity;BME280_pressure;Samples;Min_cycle;Max_cycle;Signal;HPM_P1;HPM_P2
2022/05/15 00:02:05;;;;;;;10.43;6.37;;;12.20;99.90;;;;;;5060094;28;20169;-86
2022/05/15 00:04:31;;;;;;;5.93;4.83;;;12.20;99.90;;;;;;5059050;28;20201;-86
2022/05/15 00:06:56;;;;;;;8.83;4.10;;;12.20;99.90;;;;;;5058796;28;20596;-86
2022/05/15 00:09:22;;;;;;;6.20;4.40;;;12.10;99.90;;;;;;5058661;28;20251;-86
2022/05/15 00:11:48;;;;;;;8.57;5.33;;;12.10;99.90;;;;;;5059468;28;20173;-86
2022/05/15 00:14:14;;;;;;;7.27;4.50;;;;;;;;;;5058348;28;20209;-86
2022/05/15 00:16:39;;;;;;;6.50;4.80;;;12.00;99.90;;;;;;5058556;28;20191;-86
2022/05/15 00:19:06;;;;;;;6.77;4.53;;;11.90;99.90;;;;;;5058472;28;20184;-86
2022/05/15 00:21:32;;;;;;;8.00;5.23;;;11.90;99.90;;;;;;5058720;28;20177;-86
2022/05/15 00:23:59;;;;;;;6.03;4.63;;;11.90;99.90;;;;;;5058667;28;20198;-86
2022/05/15 00:26:25;;;;;;;7.60;4.80;;;11.90;99.90;;;;;;5060472;28;20173;-86
2022/05/15 00:28:52;;;;;;;7.60;5.03;;;11.90;99.90;;;;;;5062407;28;20205;-86
2022/05/15 00:31:18;;;;;;;9.47;5.17;;;11.90;99.90;;;;;;5070804;28;20200;-86
2022/05/15 00:33:44;;;;;;;7.57;5.03;;;11.80;99.90;;;;;;5060232;28;20203;-86
2022/05/15 00:36:11;;;;;;;5.60;4.57;;;11.70;99.90;;;;;;5059950;28;20547;-86
2022/05/15 00:38:37;;;;;;;6.33;5.63;;;11.70;99.90;;;;;;5059040;28;20180;-86
2022/05/15 00:41:03;;;;;;;9.33;6.17;;;11.70;99.90;;;;;;5059281;28;20180;-86
2022/05/15 00:43:44;;;;;;;8.17;5.93;;;11.70;99.90;;;;;;5058036;28;20208;-85
2022/05/15 00:46:18;;;;;;;8.90;5.73;;;11.60;99.90;;;;;;5062088;28;20177;-85
2022/05/15 00:48:45;;;;;;;8.67;5.10;;;11.60;99.90;;;;;;5060706;28;20201;-85
2022/05/15 00:51:22;;;;;;;8.10;6.07;;;11.60;99.90;;;;;;5060623;28;20204;-85
2022/05/15 00:53:52;;;;;;;7.17;5.40;;;11.50;99.90;;;;;;5060443;28;20276;-85
2022/05/15 00:56:21;;;;;;;11.00;5.70;;;11.40;99.90;;;;;;5062443;28;20169;-85
2022/05/15 00:58:52;;;;;;;6.77;4.70;;;11.40;99.90;;;;;;5060887;28;20181;-85
2022/05/15 01:01:18;;;;;;;6.43;4.87;;;11.40;99.90;;;;;;5061909;28;20232;-85
2022/05/15 01:03:45;;;;;;;8.03;5.90;;;11.20;99.90;;;;;;5060256;28;20202;-85
2022/05/15 01:06:11;;;;;;;6.30;5.70;;;11.20;99.90;;;;;;5060633;28;20189;-85
2022/05/15 01:08:36;;;;;;;8.87;6.50;;;11.10;99.90;;;;;;5060768;28;20201;-85
2022/05/15 01:11:10;;;;;;;9.73;6.30;;;11.10;99.90;;;;;;5060912;28;20173;-85
2022/05/15 01:13:39;;;;;;;7.20;5.70;;;11.10;99.90;;;;;;5060600;28;20216;-85
2022/05/15 01:16:06;;;;;;;7.43;5.57;;;11.10;99.90;;;;;;5061856;28;20180;-84
2022/05/15 01:18:34;;;;;;;8.87;5.77;;;11.10;99.90;;;;;;5061134;28;20251;-84
2022/05/15 01:21:02;;;;;;;7.80;5.77;;;11.00;99.90;;;;;;5060817;28;20217;-85
2022/05/15 01:23:29;;;;;;;9.03;5.50;;;11.00;99.90;;;;;;5060664;28;20225;-85
2022/05/15 01:25:58;;;;;;;7.53;5.77;;;11.00;99.90;;;;;;5062521;28;20177;-85
2022/05/15 01:28:25;;;;;;;5.97;4.60;;;11.00;99.90;;;;;;5061625;28;20206;-84
2022/05/15 01:30:55;;;;;;;6.93;5.57;;;11.00;99.90;;;;;;5060882;28;20210;-85
2022/05/15 01:33:21;;;;;;;16.40;6.20;;;10.90;99.90;;;;;;5061777;28;20197;-85
2022/05/15 01:35:47;;;;;;;6.37;5.70;;;10.80;99.90;;;;;;5060367;28;20277;-85
2022/05/15 01:38:13;;;;;;;8.47;5.67;;;10.80;99.90;;;;;;5059991;28;20177;-84
2022/05/15 01:40:40;;;;;;;9.60;5.90;;;10.80;99.90;;;;;;5060549;28;20186;-85
2022/05/15 01:43:07;;;;;;;7.97;6.03;;;10.70;99.90;;;;;;5061701;28;20671;-85
2022/05/15 01:45:33;;;;;;;8.17;5.60;;;10.70;99.90;;;;;;5061056;28;20191;-85
2022/05/15 01:47:59;;;;;;;7.93;5.60;;;10.70;99.90;;;;;;5061748;28;20202;-85
2022/05/15 01:50:24;;;;;;;8.00;5.93;;;10.70;99.90;;;;;;5060636;28;20181;-85
2022/05/15 01:52:50;;;;;;;6.83;5.87;;;;;;;;;;5060404;28;20634;-85
2022/05/15 01:55:16;;;;;;;7.07;5.80;;;10.60;99.90;;;;;;5060664;28;20292;-85
2022/05/15 01:57:43;;;;;;;7.50;5.60;;;10.60;99.90;;;;;;5061651;28;20209;-85
2022/05/15 02:00:16;;;;;;;8.03;5.83;;;10.60;99.90;;;;;;5063084;28;20174;-85
2022/05/15 02:02:42;;;;;;;8.97;6.23;;;10.60;99.90;;;;;;5061623;28;20614;-85
2022/05/15 02:05:09;;;;;;;8.30;6.00;;;10.60;99.90;;;;;;5061817;28;20197;-85
2022/05/15 02:07:35;;;;;;;10.27;6.07;;;10.50;99.90;;;;;;5061559;28;20177;-85
2022/05/15 02:10:01;;;;;;;6.70;5.40;;;10.50;99.90;;;;;;5061404;28;20185;-85
2022/05/15 02:12:27;;;;;;;7.80;5.70;;;10.50;99.90;;;;;;5068359;28;20188;-85
2022/05/15 02:14:52;;;;;;;7.77;5.87;;;10.40;99.90;;;;;;5060576;28;20208;-84
2022/05/15 02:17:18;;;;;;;7.00;6.17;;;10.40;99.90;;;;;;5059683;28;20177;-85
2022/05/15 02:19:44;;;;;;;7.37;6.57;;;10.50;99.90;;;;;;5059262;28;20178;-84
2022/05/15 02:22:12;;;;;;;6.87;6.07;;;10.50;99.90;;;;;;5059475;28;20190;-85
2022/05/15 02:24:38;;;;;;;8.70;6.13;;;10.50;99.90;;;;;;5059101;28;20205;-84
2022/05/15 02:27:04;;;;;;;8.57;6.60;;;10.40;99.90;;;;;;5060821;28;20640;-84
2022/05/15 02:29:30;;;;;;;7.47;6.20;;;10.40;99.90;;;;;;5058527;28;20217;-84
2022/05/15 02:31:56;;;;;;;12.90;6.30;;;;;;;;;;5059616;28;20255;-84
2022/05/15 02:34:21;;;;;;;7.43;5.97;;;10.30;99.90;;;;;;5059025;28;20201;-85
2022/05/15 02:36:47;;;;;;;7.47;5.73;;;10.30;99.90;;;;;;5058753;28;20213;-85
2022/05/15 02:39:13;;;;;;;7.47;6.20;;;10.30;99.90;;;;;;5059431;28;20181;-85
2022/05/15 02:41:38;;;;;;;7.67;6.13;;;10.20;99.90;;;;;;5058336;28;20181;-84
2022/05/15 02:44:04;;;;;;;9.27;6.10;;;10.20;99.90;;;;;;5057565;28;20262;-84
2022/05/15 02:46:30;;;;;;;8.47;6.23;;;10.20;99.90;;;;;;5057068;28;20210;-84
2022/05/15 02:51:40;;;;;;;9.50;5.90;;;10.20;99.90;;;;;;5057571;28;20227;-84
2022/05/15 02:54:05;;;;;;;8.47;6.67;;;10.20;99.90;;;;;;5055796;28;20657;-84
2022/05/15 02:56:33;;;;;;;10.90;6.20;;;10.20;99.90;;;;;;5057946;28;20702;-84
2022/05/15 02:58:59;;;;;;;9.00;6.10;;;10.20;99.90;;;;;;5060204;28;20268;-83
2022/05/15 03:01:25;;;;;;;8.97;5.90;;;10.20;99.90;;;;;;5059548;28;20177;-84
2022/05/15 03:03:52;;;;;;;8.67;5.83;;;10.10;99.90;;;;;;5060139;28;20211;-84
2022/05/15 03:06:18;;;;;;;7.63;6.13;;;10.10;99.90;;;;;;5060712;28;20547;-85
2022/05/15 03:08:47;;;;;;;8.77;6.50;;;10.10;99.90;;;;;;5060525;28;20231;-84
2022/05/15 03:11:13;;;;;;;7.07;6.27;;;10.10;99.90;;;;;;5061585;28;20191;-84
2022/05/15 03:13:39;;;;;;;8.20;5.40;;;10.10;99.90;;;;;;5060529;28;20248;-84
2022/05/15 03:16:07;;;;;;;6.73;6.03;;;10.10;99.90;;;;;;5060069;28;20193;-84
2022/05/15 03:18:35;;;;;;;7.33;6.40;;;10.10;99.90;;;;;;5059821;28;20207;-84
2022/05/15 03:21:01;;;;;;;7.27;6.57;;;10.00;99.90;;;;;;5061010;28;20180;-84
2022/05/15 03:23:27;;;;;;;7.97;6.97;;;10.00;99.90;;;;;;5060132;28;20569;-85
2022/05/15 03:25:52;;;;;;;8.53;6.17;;;10.00;99.90;;;;;;5058330;28;20191;-85
2022/05/15 03:28:18;;;;;;;10.63;6.50;;;;;;;;;;5058374;28;20209;-85
2022/05/15 03:30:44;;;;;;;8.13;6.63;;;10.00;99.90;;;;;;5058404;28;20184;-85
2022/05/15 03:33:10;;;;;;;12.30;6.53;;;10.00;99.90;;;;;;5058914;28;20186;-86
2022/05/15 03:35:39;;;;;;;11.23;6.53;;;10.00;99.90;;;;;;5058891;28;20184;-86
2022/05/15 03:38:07;;;;;;;7.30;6.53;;;10.00;99.90;;;;;;5058545;28;20182;-85
2022/05/15 03:40:33;;;;;;;8.53;6.03;;;10.00;99.90;;;;;;5060718;28;20183;-85
2022/05/15 03:42:59;;;;;;;8.67;7.20;;;;;;;;;;5061049;28;20190;-85
2022/05/15 03:45:25;;;;;;;6.93;5.90;;;10.10;99.90;;;;;;5060218;28;20210;-86
2022/05/15 03:47:54;;;;;;;8.83;6.17;;;10.00;99.90;;;;;;5060557;28;20184;-86
2022/05/15 03:50:23;;;;;;;9.60;6.03;;;10.00;99.90;;;;;;5060411;28;20176;-85
2022/05/15 03:52:49;;;;;;;11.63;5.90;;;9.90;99.90;;;;;;5061877;28;20259;-85
2022/05/15 03:55:15;;;;;;;6.73;5.47;;;9.80;99.90;;;;;;5063596;28;20197;-84
2022/05/15 03:57:41;;;;;;;10.80;6.77;;;9.80;99.90;;;;;;5063662;28;20548;-85
2022/05/15 04:00:11;;;;;;;10.33;7.83;;;9.80;99.90;;;;;;5059294;28;20217;-85
2022/05/15 04:02:40;;;;;;;11.57;6.70;;;9.80;99.90;;;;;;5059910;28;20177;-85
2022/05/15 04:05:08;;;;;;;10.03;6.33;;;9.80;99.90;;;;;;5060194;28;20197;-85
2022/05/15 04:07:41;;;;;;;8.33;6.27;;;9.80;99.90;;;;;;5060088;28;20176;-85
2022/05/15 04:10:07;;;;;;;10.00;6.77;;;9.80;99.90;;;;;;5059860;28;20170;-85
2022/05/15 04:12:32;;;;;;;9.03;6.30;;;9.90;99.90;;;;;;5059528;28;20198;-85
2022/05/15 04:14:58;;;;;;;6.87;6.17;;;9.90;99.90;;;;;;5059834;28;20223;-85
2022/05/15 04:17:26;;;;;;;7.97;6.20;;;;;;;;;;5060964;28;20181;-85
2022/05/15 04:19:51;;;;;;;8.70;6.47;;;10.00;99.90;;;;;;5059394;28;20173;-84
2022/05/15 04:22:17;;;;;;;9.67;6.57;;;10.10;99.90;;;;;;5060966;28;20187;-85
2022/05/15 04:24:43;;;;;;;10.90;6.70;;;10.10;99.90;;;;;;5059714;28;20204;-85
2022/05/15 04:27:09;;;;;;;8.53;7.03;;;;;;;;;;5059228;28;20315;-85
2022/05/15 04:29:34;;;;;;;11.90;7.60;;;10.20;99.90;;;;;;5059949;28;20205;-85
2022/05/15 04:32:00;;;;;;;8.83;6.83;;;;;;;;;;5061280;28;20180;-85
2022/05/15 04:34:28;;;;;;;7.27;6.40;;;10.30;99.90;;;;;;5059208;28;20223;-85
2022/05/15 04:36:54;;;;;;;9.27;6.97;;;10.40;99.90;;;;;;5059457;28;20187;-85
2022/05/15 04:39:20;;;;;;;7.70;6.77;;;10.40;99.90;;;;;;5059669;28;20374;-85
2022/05/15 04:41:46;;;;;;;8.47;6.87;;;10.50;99.90;;;;;;5061251;28;20182;-85
2022/05/15 04:44:12;;;;;;;12.10;7.23;;;10.50;99.90;;;;;;5059394;28;20296;-84
2022/05/15 04:46:38;;;;;;;10.47;6.50;;;10.60;99.90;;;;;;5058907;28;20263;-85
2022/05/15 04:49:05;;;;;;;10.07;6.67;;;10.70;99.90;;;;;;5059153;28;20201;-85
2022/05/15 04:51:31;;;;;;;9.77;6.20;;;10.80;99.90;;;;;;5058478;28;20174;-84
2022/05/15 04:53:57;;;;;;;8.77;6.63;;;10.80;99.90;;;;;;5058508;28;20220;-85
2022/05/15 04:56:23;;;;;;;6.53;5.77;;;10.90;99.90;;;;;;5058452;28;20249;-85
2022/05/15 04:58:49;;;;;;;6.93;6.20;;;11.00;99.90;;;;;;5058787;28;20173;-84
2022/05/15 05:01:15;;;;;;;8.27;6.23;;;11.10;99.90;;;;;;5058277;28;20185;-84
2022/05/15 05:03:42;;;;;;;7.10;5.67;;;11.30;99.90;;;;;;5057052;28;20228;-84
2022/05/15 05:06:08;;;;;;;9.00;6.07;;;11.30;99.90;;;;;;5057085;28;20173;-85
2022/05/15 05:08:33;;;;;;;6.83;6.13;;;11.40;99.90;;;;;;5056796;28;20573;-85
2022/05/15 05:10:59;;;;;;;9.27;6.33;;;11.50;99.90;;;;;;5059511;28;20581;-85
2022/05/15 05:13:25;;;;;;;11.07;5.60;;;11.60;99.90;;;;;;5062703;28;20209;-84
2022/05/15 05:15:50;;;;;;;11.77;5.87;;;11.70;99.90;;;;;;5062239;28;20201;-84
2022/05/15 05:18:17;;;;;;;9.63;5.90;;;11.70;99.90;;;;;;5063772;28;20181;-84
2022/05/15 05:20:45;;;;;;;9.03;5.70;;;11.90;99.90;;;;;;5062111;28;20177;-85
2022/05/15 05:23:11;;;;;;;10.90;6.30;;;12.00;99.90;;;;;;5062049;28;20573;-85
2022/05/15 05:25:37;;;;;;;6.63;5.20;;;12.10;99.90;;;;;;5061497;28;20181;-84
2022/05/15 05:28:03;;;;;;;5.23;4.73;;;12.10;99.90;;;;;;5062042;28;20569;-84
2022/05/15 05:30:29;;;;;;;9.80;5.57;;;12.20;99.90;;;;;;5060779;28;20657;-84
2022/05/15 05:32:55;;;;;;;7.27;5.00;;;12.30;99.90;;;;;;5062544;28;20193;-84
2022/05/15 05:35:22;;;;;;;6.77;5.33;;;12.50;99.90;;;;;;5062341;28;20194;-84
2022/05/15 05:37:49;;;;;;;6.07;5.17;;;12.60;99.90;;;;;;5061219;28;20174;-84
2022/05/15 05:40:15;;;;;;;6.53;5.77;;;12.70;99.90;;;;;;5061130;28;20173;-84
2022/05/15 05:42:41;;;;;;;9.87;5.00;;;12.80;99.90;;;;;;5067688;28;20201;-84
2022/05/15 05:45:08;;;;;;;7.03;4.90;;;13.00;99.90;;;;;;5060695;28;20196;-84
2022/05/15 05:47:36;;;;;;;10.73;5.23;;;13.00;99.90;;;;;;5060245;28;20255;-84
2022/05/15 05:50:01;;;;;;;8.27;5.57;;;13.10;99.90;;;;;;5060525;28;20177;-84
2022/05/15 05:52:27;;;;;;;5.03;4.53;;;13.20;99.90;;;;;;5059838;28;20257;-85
2022/05/15 05:54:53;;;;;;;7.97;4.93;;;13.30;99.90;;;;;;5061501;28;20236;-84
2022/05/15 05:57:19;;;;;;;5.90;4.93;;;13.40;99.90;;;;;;5060525;28;20185;-84
2022/05/15 05:59:44;;;;;;;7.07;4.47;;;13.50;99.90;;;;;;5061521;28;20170;-85
2022/05/15 06:02:10;;;;;;;9.23;5.33;;;13.70;99.90;;;;;;5060100;28;20235;-84
2022/05/15 06:04:40;;;;;;;8.90;4.97;;;13.80;99.90;;;;;;5060416;28;20224;-84
2022/05/15 06:07:07;;;;;;;6.90;4.53;;;13.90;99.90;;;;;;5060230;28;20182;-84
2022/05/15 06:09:35;;;;;;;6.10;5.07;;;14.00;99.90;;;;;;5061046;28;20197;-84
2022/05/15 06:12:00;;;;;;;7.37;5.30;;;14.10;99.90;;;;;;5059758;28;20178;-85
2022/05/15 06:14:26;;;;;;;5.20;4.13;;;14.30;99.90;;;;;;5060009;28;20301;-84
2022/05/15 06:16:52;;;;;;;6.13;4.30;;;14.40;99.90;;;;;;5059162;28;20185;-84
2022/05/15 06:19:17;;;;;;;5.77;4.50;;;14.60;99.90;;;;;;5058154;28;20179;-84
2022/05/15 06:21:44;;;;;;;7.73;4.80;;;14.70;99.90;;;;;;5057562;28;20277;-84
2022/05/15 06:24:10;;;;;;;6.20;4.03;;;14.70;99.90;;;;;;5058997;28;20216;-85
2022/05/15 06:26:36;;;;;;;5.77;4.27;;;14.70;99.90;;;;;;5057931;28;20205;-84
2022/05/15 06:29:01;;;;;;;5.77;4.20;;;14.80;99.90;;;;;;5058149;28;20232;-82
2022/05/15 06:31:27;;;;;;;5.43;3.83;;;14.80;99.90;;;;;;5057988;28;20231;-82
2022/05/15 06:33:53;;;;;;;6.23;4.13;;;14.80;99.90;;;;;;5058295;28;20292;-83
2022/05/15 06:36:18;;;;;;;4.60;4.10;;;15.00;99.90;;;;;;5058763;28;20178;-82
2022/05/15 06:38:44;;;;;;;5.63;3.97;;;15.00;99.90;;;;;;5058338;28;20182;-84
2022/05/15 06:41:10;;;;;;;7.47;4.43;;;15.20;99.90;;;;;;5058373;28;20225;-84
2022/05/15 06:43:37;;;;;;;5.07;3.70;;;15.30;99.90;;;;;;5059551;28;20234;-84
2022/05/15 06:46:03;;;;;;;6.47;3.97;;;15.40;99.90;;;;;;5057554;28;20188;-83
2022/05/15 06:48:29;;;;;;;5.60;4.03;;;15.60;99.90;;;;;;5057793;28;20213;-84
2022/05/15 06:50:55;;;;;;;5.43;3.60;;;15.80;99.90;;;;;;5058333;28;20598;-84
2022/05/15 06:53:21;;;;;;;6.27;3.90;;;15.90;99.90;;;;;;5057608;28;20183;-84
2022/05/15 06:58:33;;;;;;;5.33;3.63;;;16.00;99.90;;;;;;5061092;28;20200;-79
2022/05/15 07:00:59;;;;;;;5.10;3.80;;;16.20;99.90;;;;;;5058772;28;20673;-79
2022/05/15 07:03:25;;;;;;;4.97;3.63;;;16.30;99.90;;;;;;5059979;28;20201;-78
2022/05/15 07:05:50;;;;;;;4.97;3.63;;;16.40;99.90;;;;;;5058237;28;20192;-78
2022/05/15 07:08:17;;;;;;;5.97;3.77;;;16.50;99.90;;;;;;5058302;28;20236;-78
2022/05/15 07:10:43;;;;;;;7.63;5.10;;;16.70;99.90;;;;;;5058915;28;20680;-79
2022/05/15 07:13:08;;;;;;;9.33;3.47;;;16.90;99.90;;;;;;5058308;28;20190;-78
2022/05/15 07:15:36;;;;;;;4.83;3.60;;;16.90;99.90;;;;;;5057779;28;20174;-78
2022/05/15 07:18:02;;;;;;;4.67;3.23;;;17.10;99.90;;;;;;5055057;28;20185;-79
2022/05/15 07:20:29;;;;;;;5.47;3.90;;;17.30;99.90;;;;;;5055542;28;20206;-80
2022/05/15 07:22:56;;;;;;;4.00;3.40;;;17.60;99.90;;;;;;5061873;28;20185;-82
2022/05/15 07:25:22;;;;;;;6.03;3.63;;;17.90;99.90;;;;;;5062341;28;20243;-81
2022/05/15 07:27:48;;;;;;;6.20;3.70;;;18.10;99.90;;;;;;5062637;28;20197;-82
2022/05/15 07:30:14;;;;;;;7.87;4.17;;;18.30;99.90;;;;;;5063295;28;20178;-80
2022/05/15 07:32:39;;;;;;;5.37;4.10;;;18.50;99.90;;;;;;5058758;28;20182;-81
2022/05/15 07:35:05;;;;;;;4.50;3.53;;;18.60;99.90;;;;;;5058582;28;20198;-81
2022/05/15 07:37:31;;;;;;;6.87;4.30;;;18.70;99.90;;;;;;5066583;28;20171;-81
2022/05/15 07:39:57;;;;;;;4.70;3.70;;;18.80;99.90;;;;;;5064108;28;20217;-80
2022/05/15 07:42:23;;;;;;;4.17;3.77;;;18.90;99.90;;;;;;5060685;28;20580;-80
2022/05/15 07:44:48;;;;;;;6.13;4.00;;;19.00;99.90;;;;;;5056878;28;20201;-80
2022/05/15 07:47:14;;;;;;;5.93;4.30;;;19.20;99.90;;;;;;5054900;28;20597;-77
2022/05/15 07:49:40;;;;;;;5.90;4.43;;;19.40;99.90;;;;;;5059087;28;20203;-79
2022/05/15 07:52:06;;;;;;;3.93;3.30;;;19.50;99.90;;;;;;5060973;28;20166;-78
2022/05/15 07:54:33;;;;;;;3.90;3.47;;;19.60;99.90;;;;;;5057538;28;20203;-79
2022/05/15 07:56:59;;;;;;;6.40;3.60;;;19.80;99.90;;;;;;5056421;28;20183;-79
2022/05/15 07:59:25;;;;;;;3.77;3.33;;;20.00;99.90;;;;;;5057852;28;20187;-79
2022/05/15 08:01:54;;;;;;;4.30;3.20;;;20.10;99.90;;;;;;5057703;28;20552;-78
2022/05/15 08:04:20;;;;;;;6.10;3.00;;;20.30;99.90;;;;;;5057260;28;20225;-79
2022/05/15 08:09:29;;;;;;;5.40;2.77;;;20.80;99.90;;;;;;5058555;28;20216;-85
2022/05/15 08:11:55;;;;;;;4.20;3.10;;;21.60;99.90;;;;;;5058646;28;20170;-84
2022/05/15 08:14:21;;;;;;;3.60;2.90;;;22.30;99.90;;;;;;5056993;28;20259;-84
2022/05/15 08:16:47;;;;;;;2.70;2.30;;;23.10;99.90;;;;;;5056601;28;20174;-84
2022/05/15 08:24:41;;;;;;;4.13;2.60;;;23.80;99.90;;;;;;5058537;28;20212;-84
2022/05/15 08:27:09;;;;;;;3.33;2.20;;;23.90;99.90;;;;;;5058176;28;20644;-84
2022/05/15 08:29:35;;;;;;;2.43;2.17;;;24.20;99.90;;;;;;5056151;28;20201;-84
2022/05/15 08:32:02;;;;;;;3.50;2.60;;;24.30;99.90;;;;;;5056330;28;20267;-84
2022/05/15 08:34:27;;;;;;;4.77;2.13;;;24.40;98.80;;;;;;5056183;28;20193;-83
2022/05/15 08:36:54;;;;;;;5.10;2.27;;;24.10;95.50;;;;;;5057522;28;20173;-83
2022/05/15 08:39:19;;;;;;;5.67;2.87;;;23.80;98.70;;;;;;5055636;28;20206;-84
2022/05/15 08:41:47;;;;;;;3.50;2.20;;;23.90;98.80;;;;;;5055997;28;20182;-83
2022/05/15 08:44:33;;;;;;;5.60;2.30;;;23.70;97.20;;;;;;5055784;28;20221;-81
2022/05/15 08:47:01;;;;;;;3.03;1.63;;;23.80;98.60;;;;;;5056074;28;20169;-83
2022/05/15 08:50:07;;;;;;;4.30;2.10;;;23.90;94.40;;;;;;5061433;28;20207;-84
2022/05/15 08:52:56;;;;;;;4.03;1.70;;;24.20;93.10;;;;;;5057480;28;20209;-84
2022/05/15 08:55:35;;;;;;;8.63;2.73;;;24.30;94.00;;;;;;5062111;28;20194;-84
2022/05/15 08:58:05;;;;;;;3.33;1.83;;;24.50;91.70;;;;;;5062528;28;20168;-83
2022/05/15 09:00:44;;;;;;;4.60;2.30;;;24.90;95.70;;;;;;5060252;28;20170;-84
2022/05/15 09:03:18;;;;;;;4.03;2.10;;;25.70;91.30;;;;;;5061931;28;20189;-84
2022/05/15 09:06:22;;;;;;;5.73;2.03;;;25.70;92.40;;;;;;5060831;28;20593;-84
2022/05/15 09:09:09;;;;;;;3.43;2.00;;;26.00;91.30;;;;;;5061630;28;20657;-84
2022/05/15 09:12:12;;;;;;;4.33;1.80;;;26.30;90.00;;;;;;5060173;28;20198;-84
2022/05/15 09:14:53;;;;;;;4.67;1.67;;;26.30;90.40;;;;;;5062535;28;20211;-84
2022/05/15 09:17:38;;;;;;;7.03;2.30;;;26.30;90.60;;;;;;5064695;28;20177;-84
2022/05/15 09:20:29;;;;;;;3.63;2.10;;;26.30;89.50;;;;;;5059193;28;20208;-84
2022/05/15 09:23:20;;;;;;;2.43;1.70;;;26.40;90.20;;;;;;5073969;28;20191;-84
2022/05/15 09:26:06;;;;;;;6.13;2.00;;;26.70;90.40;;;;;;5049848;28;20188;-84
2022/05/15 09:28:45;;;;;;;2.60;1.77;;;26.50;80.70;;;;;;5059575;28;20191;-87
2022/05/15 09:31:24;;;;;;;3.70;1.83;;;26.60;83.90;;;;;;5060441;28;20169;-87
2022/05/15 09:34:05;;;;;;;2.93;1.90;;;26.90;85.50;;;;;;5060350;28;20204;-87
2022/05/15 09:36:42;;;;;;;3.13;1.80;;;26.80;82.70;;;;;;5061790;28;20224;-86
2022/05/15 09:39:21;;;;;;;4.50;1.60;;;26.60;78.90;;;;;;5062092;28;20547;-85
2022/05/15 09:45:14;;;;;;;2.30;1.67;;;26.60;79.00;;;;;;5062100;28;20213;-85
2022/05/15 09:47:46;;;;;;;5.03;1.97;;;26.90;76.90;;;;;;5060584;28;20189;-86
2022/05/15 09:50:40;;;;;;;5.50;1.73;;;26.90;74.70;;;;;;5063489;28;20170;-85
2022/05/15 09:53:14;;;;;;;2.13;1.80;;;27.00;78.70;;;;;;5059180;28;20236;-84
2022/05/15 09:55:40;;;;;;;5.07;1.53;;;26.90;80.40;;;;;;5059071;28;20163;-85
2022/05/15 09:58:19;;;;;;;4.90;1.60;;;27.30;76.90;;;;;;5060099;28;20252;-86
2022/05/15 10:00:45;;;;;;;3.47;1.63;;;27.20;78.50;;;;;;5060251;28;20188;-85
2022/05/15 10:03:22;;;;;;;3.17;1.80;;;27.20;84.30;;;;;;5059375;28;20182;-86
2022/05/15 10:06:01;;;;;;;4.43;1.80;;;27.10;77.00;;;;;;5059930;28;20290;-85
2022/05/15 10:08:29;;;;;;;4.83;1.80;;;27.20;81.40;;;;;;5059506;28;20267;-85
2022/05/15 10:10:59;;;;;;;3.33;1.63;;;27.40;79.50;;;;;;5060853;28;20236;-84
2022/05/15 10:13:45;;;;;;;4.67;2.00;;;27.40;76.40;;;;;;5060064;28;20217;-85
2022/05/15 10:16:18;;;;;;;2.80;1.43;;;27.40;69.80;;;;;;5060398;28;20645;-86
2022/05/15 10:19:05;;;;;;;4.33;1.80;;;27.10;72.40;;;;;;5061120;28;20170;-85
2022/05/15 10:21:38;;;;;;;2.47;1.87;;;27.10;75.70;;;;;;5060020;28;20240;-86
2022/05/15 10:24:10;;;;;;;3.30;1.80;;;27.10;82.90;;;;;;5060516;28;20201;-86
2022/05/15 10:26:44;;;;;;;2.73;1.70;;;27.30;78.00;;;;;;5059716;28;20174;-86
2022/05/15 10:29:47;;;;;;;4.23;2.20;;;27.20;72.40;;;;;;5059589;28;20194;-87
2022/05/15 10:32:39;;;;;;;2.37;1.80;;;27.10;75.30;;;;;;5057381;28;20192;-86
2022/05/15 10:35:09;;;;;;;2.67;1.63;;;27.40;74.30;;;;;;5060218;28;20202;-86
2022/05/15 10:38:24;;;;;;;6.10;1.73;;;27.60;76.40;;;;;;5062045;28;20199;-85
2022/05/15 10:41:09;;;;;;;3.60;1.87;;;27.50;72.20;;;;;;5027174;28;20283;-86
2022/05/15 10:43:55;;;;;;;3.20;1.53;;;27.70;76.50;;;;;;5060312;28;20211;-84
2022/05/15 10:46:49;;;;;;;5.53;1.80;;;27.70;77.20;;;;;;5060981;28;20236;-86
2022/05/15 10:49:20;;;;;;;3.60;1.97;;;27.70;74.90;;;;;;5060671;28;20209;-85
2022/05/15 10:52:02;;;;;;;3.53;1.90;;;27.70;74.90;;;;;;5060256;28;20178;-87
2022/05/15 10:58:17;;;;;;;4.30;2.03;;;27.80;72.40;;;;;;5020246;28;20787;-85
2022/05/15 11:01:21;;;;;;;5.97;2.27;;;27.50;68.50;;;;;;5058590;28;20188;-86
2022/05/15 11:04:08;;;;;;;3.37;2.10;;;27.70;67.50;;;;;;5058372;28;20210;-87
2022/05/15 11:06:40;;;;;;;2.67;1.80;;;28.00;69.10;;;;;;5066959;28;20229;-85
2022/05/15 11:09:17;;;;;;;2.70;2.03;;;28.30;73.50;;;;;;5066241;28;20195;-85
2022/05/15 11:12:02;;;;;;;4.00;2.00;;;28.40;71.50;;;;;;5062998;28;20165;-85
2022/05/15 11:14:33;;;;;;;3.00;1.80;;;28.60;69.30;;;;;;5062238;28;20339;-85
2022/05/15 11:17:11;;;;;;;5.57;2.50;;;28.80;72.00;;;;;;5062592;28;20153;-86
2022/05/15 11:19:44;;;;;;;1.97;1.60;;;29.00;68.60;;;;;;5062081;28;20167;-84
2022/05/15 11:22:19;;;;;;;4.70;1.97;;;28.80;65.40;;;;;;5061262;28;20175;-84
2022/05/15 11:24:55;;;;;;;2.67;1.93;;;28.80;66.90;;;;;;5059326;28;20198;-84
2022/05/15 11:27:35;;;;;;;1.70;1.47;;;29.10;64.70;;;;;;5059666;28;20174;-84
2022/05/15 11:30:10;;;;;;;2.83;1.63;;;29.50;64.20;;;;;;5059842;28;20194;-84
2022/05/15 11:32:58;;;;;;;3.57;1.87;;;29.70;61.40;;;;;;5058711;28;20163;-84
2022/05/15 11:35:29;;;;;;;3.17;1.60;;;29.90;64.20;;;;;;5056467;28;20674;-85
2022/05/15 11:38:01;;;;;;;2.53;2.00;;;30.00;63.00;;;;;;5057806;28;20255;-84
2022/05/15 11:40:35;;;;;;;3.87;2.10;;;30.40;62.50;;;;;;5061860;28;20172;-84
2022/05/15 11:43:25;;;;;;;3.93;1.67;;;30.70;58.90;;;;;;5061776;28;20174;-84
2022/05/15 11:45:55;;;;;;;2.97;1.60;;;30.30;64.00;;;;;;5059880;28;20188;-85
2022/05/15 11:48:30;;;;;;;3.73;1.83;;;30.30;57.00;;;;;;5059739;28;20207;-85
2022/05/15 11:51:04;;;;;;;4.00;1.80;;;30.40;59.20;;;;;;5061814;28;20169;-84
2022/05/15 11:53:34;;;;;;;2.53;1.80;;;31.20;67.30;;;;;;5060387;28;20194;-84
2022/05/15 11:56:20;;;;;;;2.70;1.47;;;31.30;62.60;;;;;;5060143;28;20573;-84
2022/05/15 11:58:59;;;;;;;3.53;1.80;;;31.70;58.10;;;;;;5059559;28;20177;-84
2022/05/15 12:01:25;;;;;;;2.83;1.77;;;31.70;61.70;;;;;;5060742;28;20190;-84
2022/05/15 12:04:25;;;;;;;2.30;1.83;;;32.10;54.40;;;;;;5061571;28;20545;-85
2022/05/15 12:06:56;;;;;;;3.13;1.60;;;32.20;57.00;;;;;;5061189;28;20196;-83
2022/05/15 12:09:23;;;;;;;3.70;1.90;;;31.80;54.40;;;;;;5060148;28;20205;-85
2022/05/15 12:11:51;;;;;;;2.70;1.70;;;31.70;57.50;;;;;;5060710;28;20566;-85
2022/05/15 12:14:25;;;;;;;4.40;1.80;;;32.30;57.70;;;;;;5060951;28;20236;-84
2022/05/15 12:17:00;;;;;;;2.30;1.63;;;32.30;55.00;;;;;;5068947;28;20197;-83
2022/05/15 12:19:40;;;;;;;3.03;1.70;;;32.40;54.10;;;;;;5068501;28;20169;-83
2022/05/15 12:22:13;;;;;;;1.70;1.60;;;32.30;57.30;;;;;;5064408;28;20254;-81
2022/05/15 12:24:43;;;;;;;4.03;1.93;;;31.80;58.00;;;;;;5066960;28;20196;-80
2022/05/15 12:27:25;;;;;;;2.47;1.70;;;31.70;57.40;;;;;;5065553;28;20185;-80
2022/05/15 12:30:17;;;;;;;3.47;1.97;;;32.40;57.80;;;;;;5065766;28;20280;-79
2022/05/15 12:32:51;;;;;;;2.73;2.00;;;33.00;63.80;;;;;;5066767;28;20168;-80
2022/05/15 12:35:32;;;;;;;1.77;1.60;;;33.00;52.30;;;;;;5066656;28;20688;-80
2022/05/15 12:38:05;;;;;;;2.17;1.70;;;33.20;57.80;;;;;;5067147;28;20164;-81
2022/05/15 12:40:37;;;;;;;3.63;1.70;;;33.50;52.90;;;;;;5065541;28;20624;-81
2022/05/15 12:43:21;;;;;;;2.70;1.93;;;32.90;53.60;;;;;;5064914;28;20175;-80
2022/05/15 12:45:47;;;;;;;3.30;2.00;;;32.90;55.10;;;;;;5062450;28;20201;-81
2022/05/15 12:48:14;;;;;;;3.57;1.90;;;33.10;51.20;;;;;;5063494;28;20202;-80
2022/05/15 12:51:09;;;;;;;7.00;1.80;;;32.90;60.00;;;;;;5063339;28;20162;-80
2022/05/15 12:53:46;;;;;;;3.50;2.37;;;32.50;49.10;;;;;;5062323;28;20209;-80
2022/05/15 12:56:26;;;;;;;3.60;1.57;;;32.40;56.00;;;;;;5064241;28;20223;-80
2022/05/15 12:58:56;;;;;;;3.83;1.83;;;32.90;55.70;;;;;;5063463;28;20162;-80
2022/05/15 13:01:26;;;;;;;5.97;1.90;;;32.90;53.10;;;;;;5063265;28;20205;-79
2022/05/15 13:03:56;;;;;;;3.30;1.57;;;33.10;51.40;;;;;;5062257;28;20202;-80
2022/05/15 13:06:29;;;;;;;2.43;1.90;;;33.10;51.90;;;;;;5063314;28;20170;-80
2022/05/15 13:08:59;;;;;;;1.80;1.47;;;33.30;55.30;;;;;;5062330;28;20191;-79
2022/05/15 13:11:44;;;;;;;3.07;1.87;;;33.40;55.10;;;;;;5063109;28;20604;-79
2022/05/15 13:14:17;;;;;;;2.33;1.80;;;33.50;49.70;;;;;;5063230;28;20205;-80
2022/05/15 13:16:46;;;;;;;2.57;1.70;;;33.50;50.30;;;;;;5061576;28;20178;-79
2022/05/15 13:19:14;;;;;;;3.07;1.70;;;33.50;49.40;;;;;;5062505;28;20236;-79
2022/05/15 13:21:44;;;;;;;3.43;1.73;;;33.10;56.80;;;;;;5061808;28;20185;-81
2022/05/15 13:24:11;;;;;;;1.90;1.63;;;32.80;52.10;;;;;;5061030;28;20618;-79
2022/05/15 13:26:41;;;;;;;4.80;2.10;;;32.50;52.00;;;;;;5061979;28;20180;-84